sensor_id;sensor_type;location;lat;lon;timestamp;temperature;humidity
52979;DHT22;51106;53.186;6.598;2022-07-06T00:01:52;14.50;99.90
52979;DHT22;51106;53.186;6.598;2022-07-06T00:03:54;14.50;99.90
52979;DHT22;51106;53.186;6.598;2022-07-06T00:05:56;14.50;99.90
52979;DHT22;51106;53.186;6.598;2022-07-06T00:07:59;14.50;99.90
52979;DHT22;51106;53.186;6.598;2022-07-06T00:10:00;14.50;99.90
52979;DHT22;51106;53.186;6.598;2022-07-06T00:12:03;14.50;99.90
52979;DHT22;51106;53.186;6.598;2022-07-06T00:14:05;14.40;99.90
52979;DHT22;51106;53.186;6.598;2022-07-06T00:16:08;14.40;99.90
52979;DHT22;51106;53.186;6.598;2022-07-06T00:18:10;14.40;99.90
52979;DHT22;51106;53.186;6.598;2022-07-06T00:20:12;14.40;99.90
52979;DHT22;51106;53.186;6.598;2022-07-06T00:22:14;14.40;99.90
52979;DHT22;51106;53.186;6.598;2022-07-06T00:24:16;14.40;99.90
52979;DHT22;51106;53.186;6.598;2022-07-06T00:26:20;14.40;99.90
52979;DHT22;51106;53.186;6.598;2022-07-06T00:28:22;14.40;99.90
52979;DHT22;51106;53.186;6.598;2022-07-06T00:30:25;14.40;99.90
52979;DHT22;51106;53.186;6.598;2022-07-06T00:32:27;14.40;99.90
52979;DHT22;51106;53.186;6.598;2022-07-06T00:34:29;14.40;99.90
52979;DHT22;51106;53.186;6.598;2022-07-06T00:36:31;14.30;99.90
52979;DHT22;51106;53.186;6.598;2022-07-06T00:38:34;14.30;99.90
52979;DHT22;51106;53.186;6.598;2022-07-06T00:40:36;14.40;99.90
52979;DHT22;51106;53.186;6.598;2022-07-06T00:42:45;14.30;99.90
52979;DHT22;51106;53.186;6.598;2022-07-06T00:44:47;14.30;99.90
52979;DHT22;51106;53.186;6.598;2022-07-06T00:46:50;14.20;99.90
52979;DHT22;51106;53.186;6.598;2022-07-06T00:48:52;14.20;99.90
52979;DHT22;51106;53.186;6.598;2022-07-06T00:50:54;14.20;99.90
52979;DHT22;51106;53.186;6.598;2022-07-06T00:53:00;14.20;99.90
52979;DHT22;51106;53.186;6.598;2022-07-06T00:55:02;14.20;99.90
52979;DHT22;51106;53.186;6.598;2022-07-06T00:57:04;14.20;99.90
52979;DHT22;51106;53.186;6.598;2022-07-06T00:59:08;14.20;99.90
52979;DHT22;51106;53.186;6.598;2022-07-06T01:01:10;14.30;99.90
52979;DHT22;51106;53.186;6.598;2022-07-06T01:03:12;14.10;99.90
52979;DHT22;51106;53.186;6.598;2022-07-06T01:05:15;14.10;99.90
52979;DHT22;51106;53.186;6.598;2022-07-06T01:07:17;14.10;99.90
52979;DHT22;51106;53.186;6.598;2022-07-06T01:09:19;14.10;99.90
52979;DHT22;51106;53.186;6.598;2022-07-06T01:11:22;14.10;99.90
52979;DHT22;51106;53.186;6.598;2022-07-06T01:13:25;14.10;99.90
52979;DHT22;51106;53.186;6.598;2022-07-06T01:15:27;14.20;99.90
52979;DHT22;51106;53.186;6.598;2022-07-06T01:17:30;14.30;99.90
52979;DHT22;51106;53.186;6.598;2022-07-06T01:19:33;14.10;99.90
52979;DHT22;51106;53.186;6.598;2022-07-06T01:21:37;14.10;99.90
52979;DHT22;51106;53.186;6.598;2022-07-06T01:23:41;14.10;99.90
52979;DHT22;51106;53.186;6.598;2022-07-06T01:25:44;14.10;99.90
52979;DHT22;51106;53.186;6.598;2022-07-06T01:27:47;14.40;99.90
52979;DHT22;51106;53.186;6.598;2022-07-06T01:29:49;14.10;99.90
52979;DHT22;51106;53.186;6.598;2022-07-06T01:31:51;14.00;99.90
52979;DHT22;51106;53.186;6.598;2022-07-06T01:33:55;14.00;99.90
52979;DHT22;51106;53.186;6.598;2022-07-06T01:35:57;14.00;99.90
52979;DHT22;51106;53.186;6.598;2022-07-06T01:38:00;14.00;99.90
52979;DHT22;51106;53.186;6.598;2022-07-06T01:40:04;14.00;99.90
52979;DHT22;51106;53.186;6.598;2022-07-06T01:42:07;14.00;99.90
52979;DHT22;51106;53.186;6.598;2022-07-06T01:44:09;13.90;99.90
52979;DHT22;51106;53.186;6.598;2022-07-06T01:46:12;13.90;99.90
52979;DHT22;51106;53.186;6.598;2022-07-06T01:48:14;13.90;99.90
52979;DHT22;51106;53.186;6.598;2022-07-06T01:50:16;13.90;99.90
52979;DHT22;51106;53.186;6.598;2022-07-06T01:52:18;13.90;99.90
52979;DHT22;51106;53.186;6.598;2022-07-06T01:54:22;13.90;99.90
52979;DHT22;51106;53.186;6.598;2022-07-06T01:56:24;13.90;99.90
52979;DHT22;51106;53.186;6.598;2022-07-06T01:58:25;13.90;99.90
52979;DHT22;51106;53.186;6.598;2022-07-06T02:00:28;14.00;99.90
52979;DHT22;51106;53.186;6.598;2022-07-06T02:02:30;14.00;99.90
52979;DHT22;51106;53.186;6.598;2022-07-06T02:04:32;14.00;99.90
52979;DHT22;51106;53.186;6.598;2022-07-06T02:06:34;14.00;99.90
52979;DHT22;51106;53.186;6.598;2022-07-06T02:08:36;14.00;99.90
52979;DHT22;51106;53.186;6.598;2022-07-06T02:10:38;14.00;99.90
52979;DHT22;51106;53.186;6.598;2022-07-06T02:12:40;14.10;99.90
52979;DHT22;51106;53.186;6.598;2022-07-06T02:14:42;14.20;99.90
52979;DHT22;51106;53.186;6.598;2022-07-06T02:16:44;14.10;99.90
52979;DHT22;51106;53.186;6.598;2022-07-06T02:18:46;14.10;99.90
52979;DHT22;51106;53.186;6.598;2022-07-06T02:20:48;14.10;99.90
52979;DHT22;51106;53.186;6.598;2022-07-06T02:22:53;14.10;99.90
52979;DHT22;51106;53.186;6.598;2022-07-06T02:24:55;14.00;99.90
52979;DHT22;51106;53.186;6.598;2022-07-06T02:26:57;14.00;99.90
52979;DHT22;51106;53.186;6.598;2022-07-06T02:28:59;14.00;99.90
52979;DHT22;51106;53.186;6.598;2022-07-06T02:31:01;13.90;99.90
52979;DHT22;51106;53.186;6.598;2022-07-06T02:33:04;13.90;99.90
52979;DHT22;51106;53.186;6.598;2022-07-06T02:35:06;13.90;99.90
52979;DHT22;51106;53.186;6.598;2022-07-06T02:37:09;13.80;99.90
52979;DHT22;51106;53.186;6.598;2022-07-06T02:39:11;13.80;99.90
52979;DHT22;51106;53.186;6.598;2022-07-06T02:41:13;13.80;99.90
52979;DHT22;51106;53.186;6.598;2022-07-06T02:43:15;13.80;99.90
52979;DHT22;51106;53.186;6.598;2022-07-06T02:45:17;13.70;99.90
52979;DHT22;51106;53.186;6.598;2022-07-06T02:47:19;13.70;99.90
52979;DHT22;51106;53.186;6.598;2022-07-06T02:49:21;13.70;99.90
52979;DHT22;51106;53.186;6.598;2022-07-06T02:51:23;13.60;99.90
52979;DHT22;51106;53.186;6.598;2022-07-06T02:53:25;13.60;99.90
52979;DHT22;51106;53.186;6.598;2022-07-06T02:55:27;13.60;99.90
52979;DHT22;51106;53.186;6.598;2022-07-06T02:57:29;13.60;99.90
52979;DHT22;51106;53.186;6.598;2022-07-06T02:59:31;13.50;99.90
52979;DHT22;51106;53.186;6.598;2022-07-06T03:01:33;13.50;99.90
52979;DHT22;51106;53.186;6.598;2022-07-06T03:03:35;13.50;99.90
52979;DHT22;51106;53.186;6.598;2022-07-06T03:05:37;13.40;99.90
52979;DHT22;51106;53.186;6.598;2022-07-06T03:07:39;14.00;99.90
52979;DHT22;51106;53.186;6.598;2022-07-06T03:09:42;13.40;99.90
52979;DHT22;51106;53.186;6.598;2022-07-06T03:11:44;13.40;99.90
52979;DHT22;51106;53.186;6.598;2022-07-06T03:13:45;13.40;99.90
52979;DHT22;51106;53.186;6.598;2022-07-06T03:15:48;13.40;99.90
52979;DHT22;51106;53.186;6.598;2022-07-06T03:17:50;13.40;99.90
52979;DHT22;51106;53.186;6.598;2022-07-06T03:19:52;13.30;99.90
52979;DHT22;51106;53.186;6.598;2022-07-06T03:21:54;13.30;99.90
52979;DHT22;51106;53.186;6.598;2022-07-06T03:23:57;13.30;99.90
52979;DHT22;51106;53.186;6.598;2022-07-06T03:25:59;13.30;99.90
52979;DHT22;51106;53.186;6.598;2022-07-06T03:28:01;13.30;99.90
52979;DHT22;51106;53.186;6.598;2022-07-06T03:30:04;13.30;99.90
52979;DHT22;51106;53.186;6.598;2022-07-06T03:32:11;13.30;99.90
52979;DHT22;51106;53.186;6.598;2022-07-06T03:34:14;13.20;99.90
52979;DHT22;51106;53.186;6.598;2022-07-06T03:36:16;13.30;99.90
52979;DHT22;51106;53.186;6.598;2022-07-06T03:38:18;13.20;99.90
52979;DHT22;51106;53.186;6.598;2022-07-06T03:40:21;13.20;99.90
52979;DHT22;51106;53.186;6.598;2022-07-06T03:42:22;13.30;99.90
52979;DHT22;51106;53.186;6.598;2022-07-06T03:44:24;13.10;99.90
52979;DHT22;51106;53.186;6.598;2022-07-06T03:46:28;13.20;99.90
52979;DHT22;51106;53.186;6.598;2022-07-06T03:48:30;13.20;99.90
52979;DHT22;51106;53.186;6.598;2022-07-06T03:50:32;13.20;99.90
52979;DHT22;51106;53.186;6.598;2022-07-06T03:52:35;13.20;99.90
52979;DHT22;51106;53.186;6.598;2022-07-06T03:54:41;13.20;99.90
52979;DHT22;51106;53.186;6.598;2022-07-06T03:56:43;13.20;99.90
52979;DHT22;51106;53.186;6.598;2022-07-06T03:58:45;13.20;99.90
52979;DHT22;51106;53.186;6.598;2022-07-06T04:00:47;13.40;99.90
52979;DHT22;51106;53.186;6.598;2022-07-06T04:02:49;13.20;99.90
52979;DHT22;51106;53.186;6.598;2022-07-06T04:04:51;13.20;99.90
52979;DHT22;51106;53.186;6.598;2022-07-06T04:06:53;13.20;99.90
52979;DHT22;51106;53.186;6.598;2022-07-06T04:08:56;13.20;99.90
52979;DHT22;51106;53.186;6.598;2022-07-06T04:10:58;13.10;99.90
52979;DHT22;51106;53.186;6.598;2022-07-06T04:13:00;13.10;99.90
52979;DHT22;51106;53.186;6.598;2022-07-06T04:15:02;13.20;99.90
52979;DHT22;51106;53.186;6.598;2022-07-06T04:17:04;13.20;99.90
52979;DHT22;51106;53.186;6.598;2022-07-06T04:19:26;13.20;99.90
52979;DHT22;51106;53.186;6.598;2022-07-06T04:21:28;13.80;99.90
52979;DHT22;51106;53.186;6.598;2022-07-06T04:23:30;13.50;99.90
52979;DHT22;51106;53.186;6.598;2022-07-06T04:25:32;13.30;99.90
52979;DHT22;51106;53.186;6.598;2022-07-06T04:27:35;13.30;99.90
52979;DHT22;51106;53.186;6.598;2022-07-06T04:29:37;13.30;99.90
52979;DHT22;51106;53.186;6.598;2022-07-06T04:31:40;13.30;99.90
52979;DHT22;51106;53.186;6.598;2022-07-06T04:33:44;13.30;99.90
52979;DHT22;51106;53.186;6.598;2022-07-06T04:35:47;13.30;99.90
52979;DHT22;51106;53.186;6.598;2022-07-06T04:37:49;13.30;99.90
52979;DHT22;51106;53.186;6.598;2022-07-06T04:39:51;13.30;99.90
52979;DHT22;51106;53.186;6.598;2022-07-06T04:41:53;13.30;99.90
52979;DHT22;51106;53.186;6.598;2022-07-06T04:43:55;13.40;99.90
52979;DHT22;51106;53.186;6.598;2022-07-06T04:45:57;13.40;99.90
52979;DHT22;51106;53.186;6.598;2022-07-06T04:48:00;13.30;99.90
52979;DHT22;51106;53.186;6.598;2022-07-06T04:50:03;13.40;99.90
52979;DHT22;51106;53.186;6.598;2022-07-06T04:52:05;13.40;99.90
52979;DHT22;51106;53.186;6.598;2022-07-06T04:54:08;13.40;99.90
52979;DHT22;51106;53.186;6.598;2022-07-06T04:56:10;13.40;99.90
52979;DHT22;51106;53.186;6.598;2022-07-06T04:58:12;13.30;99.90
52979;DHT22;51106;53.186;6.598;2022-07-06T05:00:14;13.40;99.90
52979;DHT22;51106;53.186;6.598;2022-07-06T05:02:16;13.40;99.90
52979;DHT22;51106;53.186;6.598;2022-07-06T05:04:18;13.40;99.90
52979;DHT22;51106;53.186;6.598;2022-07-06T05:06:21;13.40;99.90
52979;DHT22;51106;53.186;6.598;2022-07-06T05:08:23;13.50;99.90
52979;DHT22;51106;53.186;6.598;2022-07-06T05:10:26;13.50;99.90
52979;DHT22;51106;53.186;6.598;2022-07-06T05:12:28;13.60;99.90
52979;DHT22;51106;53.186;6.598;2022-07-06T05:14:30;13.60;99.90
52979;DHT22;51106;53.186;6.598;2022-07-06T05:16:32;13.70;99.90
52979;DHT22;51106;53.186;6.598;2022-07-06T05:18:34;13.70;99.90
52979;DHT22;51106;53.186;6.598;2022-07-06T05:20:37;13.80;99.90
52979;DHT22;51106;53.186;6.598;2022-07-06T05:22:46;13.90;99.90
52979;DHT22;51106;53.186;6.598;2022-07-06T05:24:48;13.90;99.90
52979;DHT22;51106;53.186;6.598;2022-07-06T05:26:50;14.00;99.90
52979;DHT22;51106;53.186;6.598;2022-07-06T05:28:52;14.00;99.90
52979;DHT22;51106;53.186;6.598;2022-07-06T05:30:55;14.10;99.90
52979;DHT22;51106;53.186;6.598;2022-07-06T05:32:57;14.10;99.90
52979;DHT22;51106;53.186;6.598;2022-07-06T05:34:59;14.20;99.90
52979;DHT22;51106;53.186;6.598;2022-07-06T05:37:22;14.20;99.90
52979;DHT22;51106;53.186;6.598;2022-07-06T05:39:24;14.30;99.90
52979;DHT22;51106;53.186;6.598;2022-07-06T05:41:26;14.60;99.90
52979;DHT22;51106;53.186;6.598;2022-07-06T05:43:36;14.20;99.90
52979;DHT22;51106;53.186;6.598;2022-07-06T05:45:38;14.20;99.90
52979;DHT22;51106;53.186;6.598;2022-07-06T05:47:41;14.20;99.90
52979;DHT22;51106;53.186;6.598;2022-07-06T05:50:01;14.20;99.90
52979;DHT22;51106;53.186;6.598;2022-07-06T05:52:15;14.20;99.90
52979;DHT22;51106;53.186;6.598;2022-07-06T05:54:17;14.20;99.90
52979;DHT22;51106;53.186;6.598;2022-07-06T05:56:19;14.20;99.90
52979;DHT22;51106;53.186;6.598;2022-07-06T05:58:22;14.20;99.90
52979;DHT22;51106;53.186;6.598;2022-07-06T06:00:27;14.20;99.90
52979;DHT22;51106;53.186;6.598;2022-07-06T06:02:40;14.30;99.90
52979;DHT22;51106;53.186;6.598;2022-07-06T06:04:42;14.40;99.90
52979;DHT22;51106;53.186;6.598;2022-07-06T06:06:44;14.40;99.90
52979;DHT22;51106;53.186;6.598;2022-07-06T06:08:46;14.60;99.90
52979;DHT22;51106;53.186;6.598;2022-07-06T06:10:48;14.50;99.90
52979;DHT22;51106;53.186;6.598;2022-07-06T06:12:51;14.60;99.90
52979;DHT22;51106;53.186;6.598;2022-07-06T06:14:53;14.70;99.90
52979;DHT22;51106;53.186;6.598;2022-07-06T06:16:55;14.90;99.90
52979;DHT22;51106;53.186;6.598;2022-07-06T06:18:57;14.70;99.90
52979;DHT22;51106;53.186;6.598;2022-07-06T06:20:59;14.70;99.90
52979;DHT22;51106;53.186;6.598;2022-07-06T06:23:02;14.70;99.90
52979;DHT22;51106;53.186;6.598;2022-07-06T06:25:06;14.60;99.90
52979;DHT22;51106;53.186;6.598;2022-07-06T06:27:09;14.60;99.90
52979;DHT22;51106;53.186;6.598;2022-07-06T06:29:12;14.60;99.90
52979;DHT22;51106;53.186;6.598;2022-07-06T06:31:14;14.40;99.90
52979;DHT22;51106;53.186;6.598;2022-07-06T06:33:20;14.40;99.90
52979;DHT22;51106;53.186;6.598;2022-07-06T06:35:25;14.40;99.90
52979;DHT22;51106;53.186;6.598;2022-07-06T06:37:29;14.40;99.90
52979;DHT22;51106;53.186;6.598;2022-07-06T06:39:31;14.50;99.90
52979;DHT22;51106;53.186;6.598;2022-07-06T06:41:34;14.60;99.90
52979;DHT22;51106;53.186;6.598;2022-07-06T06:43:36;14.70;99.90
52979;DHT22;51106;53.186;6.598;2022-07-06T06:45:38;14.70;99.90
52979;DHT22;51106;53.186;6.598;2022-07-06T06:47:40;14.80;99.90
52979;DHT22;51106;53.186;6.598;2022-07-06T06:49:42;14.80;99.90
52979;DHT22;51106;53.186;6.598;2022-07-06T06:51:44;14.90;99.90
52979;DHT22;51106;53.186;6.598;2022-07-06T06:53:47;15.10;99.90
52979;DHT22;51106;53.186;6.598;2022-07-06T06:55:49;15.30;99.90
52979;DHT22;51106;53.186;6.598;2022-07-06T06:57:51;15.50;99.90
52979;DHT22;51106;53.186;6.598;2022-07-06T06:59:53;15.70;99.90
52979;DHT22;51106;53.186;6.598;2022-07-06T07:01:55;15.80;99.90
52979;DHT22;51106;53.186;6.598;2022-07-06T07:03:57;15.80;99.90
52979;DHT22;51106;53.186;6.598;2022-07-06T07:05:59;15.80;99.90
52979;DHT22;51106;53.186;6.598;2022-07-06T07:08:02;15.90;99.90
52979;DHT22;51106;53.186;6.598;2022-07-06T07:10:06;15.90;99.90
52979;DHT22;51106;53.186;6.598;2022-07-06T07:12:08;15.90;99.90
52979;DHT22;51106;53.186;6.598;2022-07-06T07:14:12;15.90;99.90
52979;DHT22;51106;53.186;6.598;2022-07-06T07:16:14;16.00;99.90
52979;DHT22;51106;53.186;6.598;2022-07-06T07:18:16;16.00;99.90
52979;DHT22;51106;53.186;6.598;2022-07-06T07:20:18;16.00;99.90
52979;DHT22;51106;53.186;6.598;2022-07-06T07:22:20;15.90;99.90
52979;DHT22;51106;53.186;6.598;2022-07-06T07:24:22;15.90;99.90
52979;DHT22;51106;53.186;6.598;2022-07-06T07:26:24;15.80;99.90
52979;DHT22;51106;53.186;6.598;2022-07-06T07:28:26;15.70;99.90
52979;DHT22;51106;53.186;6.598;2022-07-06T07:30:30;15.70;99.90
52979;DHT22;51106;53.186;6.598;2022-07-06T07:32:32;15.60;99.90
52979;DHT22;51106;53.186;6.598;2022-07-06T07:34:34;15.60;99.90
52979;DHT22;51106;53.186;6.598;2022-07-06T07:36:36;15.60;99.90
52979;DHT22;51106;53.186;6.598;2022-07-06T07:38:39;15.60;99.90
52979;DHT22;51106;53.186;6.598;2022-07-06T07:40:41;15.60;99.90
52979;DHT22;51106;53.186;6.598;2022-07-06T07:42:43;15.60;99.90
52979;DHT22;51106;53.186;6.598;2022-07-06T07:44:46;15.70;99.90
52979;DHT22;51106;53.186;6.598;2022-07-06T07:46:48;16.00;99.90
52979;DHT22;51106;53.186;6.598;2022-07-06T07:48:51;16.30;99.90
52979;DHT22;51106;53.186;6.598;2022-07-06T07:50:53;16.70;99.90
52979;DHT22;51106;53.186;6.598;2022-07-06T07:52:55;17.00;99.90
52979;DHT22;51106;53.186;6.598;2022-07-06T07:54:57;17.20;99.90
52979;DHT22;51106;53.186;6.598;2022-07-06T07:57:19;17.30;99.90
52979;DHT22;51106;53.186;6.598;2022-07-06T07:59:21;17.40;99.90
52979;DHT22;51106;53.186;6.598;2022-07-06T08:01:24;17.60;99.40
52979;DHT22;51106;53.186;6.598;2022-07-06T08:03:26;17.80;95.90
52979;DHT22;51106;53.186;6.598;2022-07-06T08:05:28;17.90;93.20
52979;DHT22;51106;53.186;6.598;2022-07-06T08:07:30;17.90;91.60
52979;DHT22;51106;53.186;6.598;2022-07-06T08:09:33;17.90;91.30
52979;DHT22;51106;53.186;6.598;2022-07-06T08:11:35;18.00;91.70
52979;DHT22;51106;53.186;6.598;2022-07-06T08:13:37;17.90;82.90
52979;DHT22;51106;53.186;6.598;2022-07-06T08:15:39;17.80;83.60
52979;DHT22;51106;53.186;6.598;2022-07-06T08:17:41;17.80;83.60
52979;DHT22;51106;53.186;6.598;2022-07-06T08:19:44;17.70;83.20
52979;DHT22;51106;53.186;6.598;2022-07-06T08:21:46;17.70;83.20
52979;DHT22;51106;53.186;6.598;2022-07-06T08:23:48;17.90;78.80
52979;DHT22;51106;53.186;6.598;2022-07-06T08:25:50;17.70;78.70
52979;DHT22;51106;53.186;6.598;2022-07-06T08:27:52;17.70;80.80
52979;DHT22;51106;53.186;6.598;2022-07-06T08:29:54;17.70;80.50
52979;DHT22;51106;53.186;6.598;2022-07-06T08:31:57;17.80;78.20
52979;DHT22;51106;53.186;6.598;2022-07-06T08:34:11;17.80;74.60
52979;DHT22;51106;53.186;6.598;2022-07-06T08:36:14;17.80;71.30
52979;DHT22;51106;53.186;6.598;2022-07-06T08:38:16;17.90;70.80
52979;DHT22;51106;53.186;6.598;2022-07-06T08:40:18;18.00;70.80
52979;DHT22;51106;53.186;6.598;2022-07-06T08:42:21;18.00;71.00
52979;DHT22;51106;53.186;6.598;2022-07-06T08:44:25;18.10;69.60
52979;DHT22;51106;53.186;6.598;2022-07-06T08:46:29;18.10;67.10
52979;DHT22;51106;53.186;6.598;2022-07-06T08:48:35;18.20;67.70
52979;DHT22;51106;53.186;6.598;2022-07-06T08:50:38;18.20;67.40
52979;DHT22;51106;53.186;6.598;2022-07-06T08:52:40;18.30;66.40
52979;DHT22;51106;53.186;6.598;2022-07-06T08:54:43;18.30;66.90
52979;DHT22;51106;53.186;6.598;2022-07-06T08:56:45;18.30;66.90
52979;DHT22;51106;53.186;6.598;2022-07-06T08:58:50;18.30;67.10
52979;DHT22;51106;53.186;6.598;2022-07-06T09:00:56;18.30;66.00
52979;DHT22;51106;53.186;6.598;2022-07-06T09:02:58;18.40;67.00
52979;DHT22;51106;53.186;6.598;2022-07-06T09:05:02;18.50;66.90
52979;DHT22;51106;53.186;6.598;2022-07-06T09:07:04;18.50;64.80
52979;DHT22;51106;53.186;6.598;2022-07-06T09:09:07;18.50;65.50
52979;DHT22;51106;53.186;6.598;2022-07-06T09:11:09;18.30;66.60
52979;DHT22;51106;53.186;6.598;2022-07-06T09:13:11;18.10;67.30
52979;DHT22;51106;53.186;6.598;2022-07-06T09:15:14;17.90;67.90
52979;DHT22;51106;53.186;6.598;2022-07-06T09:17:16;17.70;68.80
52979;DHT22;51106;53.186;6.598;2022-07-06T09:19:18;17.60;70.60
52979;DHT22;51106;53.186;6.598;2022-07-06T09:21:29;17.30;74.00
52979;DHT22;51106;53.186;6.598;2022-07-06T09:23:36;17.20;76.60
52979;DHT22;51106;53.186;6.598;2022-07-06T09:25:38;17.20;80.40
52979;DHT22;51106;53.186;6.598;2022-07-06T09:27:42;17.10;82.00
52979;DHT22;51106;53.186;6.598;2022-07-06T09:29:45;17.10;81.80
52979;DHT22;51106;53.186;6.598;2022-07-06T09:32:00;17.40;84.30
52979;DHT22;51106;53.186;6.598;2022-07-06T09:34:08;17.40;83.40
52979;DHT22;51106;53.186;6.598;2022-07-06T09:36:12;17.70;80.10
52979;DHT22;51106;53.186;6.598;2022-07-06T09:38:15;18.00;77.20
52979;DHT22;51106;53.186;6.598;2022-07-06T09:40:17;18.30;76.10
52979;DHT22;51106;53.186;6.598;2022-07-06T09:42:25;18.50;74.70
52979;DHT22;51106;53.186;6.598;2022-07-06T09:44:29;18.70;73.70
52979;DHT22;51106;53.186;6.598;2022-07-06T09:46:41;19.10;74.30
52979;DHT22;51106;53.186;6.598;2022-07-06T09:48:43;19.20;73.50
52979;DHT22;51106;53.186;6.598;2022-07-06T09:50:59;19.00;69.70
52979;DHT22;51106;53.186;6.598;2022-07-06T09:53:04;18.80;71.70
52979;DHT22;51106;53.186;6.598;2022-07-06T09:55:14;18.70;74.20
52979;DHT22;51106;53.186;6.598;2022-07-06T09:57:17;19.10;76.10
52979;DHT22;51106;53.186;6.598;2022-07-06T09:59:31;18.70;76.60
52979;DHT22;51106;53.186;6.598;2022-07-06T10:01:33;18.60;74.10
52979;DHT22;51106;53.186;6.598;2022-07-06T10:03:35;18.50;71.50
52979;DHT22;51106;53.186;6.598;2022-07-06T10:05:40;18.30;72.10
52979;DHT22;51106;53.186;6.598;2022-07-06T10:07:42;18.10;68.80
52979;DHT22;51106;53.186;6.598;2022-07-06T10:09:45;18.00;69.40
52979;DHT22;51106;53.186;6.598;2022-07-06T10:11:55;17.90;69.70
52979;DHT22;51106;53.186;6.598;2022-07-06T10:13:58;17.90;71.90
52979;DHT22;51106;53.186;6.598;2022-07-06T10:16:02;17.90;72.40
52979;DHT22;51106;53.186;6.598;2022-07-06T10:18:08;18.00;71.90
52979;DHT22;51106;53.186;6.598;2022-07-06T10:20:11;18.10;73.20
52979;DHT22;51106;53.186;6.598;2022-07-06T10:22:14;18.10;74.30
52979;DHT22;51106;53.186;6.598;2022-07-06T10:24:19;18.20;69.40
52979;DHT22;51106;53.186;6.598;2022-07-06T10:26:23;18.20;67.60
52979;DHT22;51106;53.186;6.598;2022-07-06T10:28:26;18.40;68.40
52979;DHT22;51106;53.186;6.598;2022-07-06T10:30:30;18.60;67.80
52979;DHT22;51106;53.186;6.598;2022-07-06T10:32:33;18.70;68.50
52979;DHT22;51106;53.186;6.598;2022-07-06T10:34:35;18.70;69.20
52979;DHT22;51106;53.186;6.598;2022-07-06T10:36:40;18.90;68.90
52979;DHT22;51106;53.186;6.598;2022-07-06T10:38:49;19.00;69.00
52979;DHT22;51106;53.186;6.598;2022-07-06T10:41:05;19.20;70.00
52979;DHT22;51106;53.186;6.598;2022-07-06T10:43:09;19.50;69.80
52979;DHT22;51106;53.186;6.598;2022-07-06T10:45:13;19.70;63.50
52979;DHT22;51106;53.186;6.598;2022-07-06T10:47:16;19.90;61.20
52979;DHT22;51106;53.186;6.598;2022-07-06T10:49:27;19.90;60.30
52979;DHT22;51106;53.186;6.598;2022-07-06T10:51:50;19.80;60.40
52979;DHT22;51106;53.186;6.598;2022-07-06T10:53:57;19.80;61.50
52979;DHT22;51106;53.186;6.598;2022-07-06T10:56:02;19.70;60.90
52979;DHT22;51106;53.186;6.598;2022-07-06T10:58:05;19.60;60.60
52979;DHT22;51106;53.186;6.598;2022-07-06T11:00:11;19.40;60.00
52979;DHT22;51106;53.186;6.598;2022-07-06T11:02:16;19.20;59.60
52979;DHT22;51106;53.186;6.598;2022-07-06T11:04:19;19.20;59.80
52979;DHT22;51106;53.186;6.598;2022-07-06T11:06:34;19.10;60.30
52979;DHT22;51106;53.186;6.598;2022-07-06T11:10:48;19.20;59.80
52979;DHT22;51106;53.186;6.598;2022-07-06T11:12:59;19.10;61.50
52979;DHT22;51106;53.186;6.598;2022-07-06T11:15:01;19.10;63.20
52979;DHT22;51106;53.186;6.598;2022-07-06T11:17:04;19.30;58.30
52979;DHT22;51106;53.186;6.598;2022-07-06T11:19:11;19.50;57.90
52979;DHT22;51106;53.186;6.598;2022-07-06T11:21:21;19.80;57.80
52979;DHT22;51106;53.186;6.598;2022-07-06T11:23:24;20.00;57.20
52979;DHT22;51106;53.186;6.598;2022-07-06T11:25:28;20.20;57.40
52979;DHT22;51106;53.186;6.598;2022-07-06T11:27:30;20.10;56.30
52979;DHT22;51106;53.186;6.598;2022-07-06T11:29:33;20.00;54.50
52979;DHT22;51106;53.186;6.598;2022-07-06T11:31:43;19.90;54.80
52979;DHT22;51106;53.186;6.598;2022-07-06T11:33:46;19.70;56.30
52979;DHT22;51106;53.186;6.598;2022-07-06T11:35:48;19.60;56.70
52979;DHT22;51106;53.186;6.598;2022-07-06T11:37:50;19.50;56.80
52979;DHT22;51106;53.186;6.598;2022-07-06T11:39:55;19.60;56.70
52979;DHT22;51106;53.186;6.598;2022-07-06T11:41:58;19.80;56.60
52979;DHT22;51106;53.186;6.598;2022-07-06T11:44:03;20.00;56.40
52979;DHT22;51106;53.186;6.598;2022-07-06T11:46:05;20.20;55.00
52979;DHT22;51106;53.186;6.598;2022-07-06T11:48:11;20.50;54.90
52979;DHT22;51106;53.186;6.598;2022-07-06T11:50:21;20.60;53.00
52979;DHT22;51106;53.186;6.598;2022-07-06T11:52:23;20.60;53.00
52979;DHT22;51106;53.186;6.598;2022-07-06T11:54:26;20.50;52.00
52979;DHT22;51106;53.186;6.598;2022-07-06T11:56:29;20.50;53.50
52979;DHT22;51106;53.186;6.598;2022-07-06T11:58:32;20.30;51.50
52979;DHT22;51106;53.186;6.598;2022-07-06T12:00:35;20.30;52.80
52979;DHT22;51106;53.186;6.598;2022-07-06T12:03:01;20.30;53.30
52979;DHT22;51106;53.186;6.598;2022-07-06T12:05:03;20.40;50.30
52979;DHT22;51106;53.186;6.598;2022-07-06T12:07:09;20.40;51.10
52979;DHT22;51106;53.186;6.598;2022-07-06T12:09:12;20.40;51.10
52979;DHT22;51106;53.186;6.598;2022-07-06T12:11:24;20.40;51.70
52979;DHT22;51106;53.186;6.598;2022-07-06T12:13:27;20.20;51.40
52979;DHT22;51106;53.186;6.598;2022-07-06T12:15:29;20.20;51.50
52979;DHT22;51106;53.186;6.598;2022-07-06T12:17:31;20.10;51.90
52979;DHT22;51106;53.186;6.598;2022-07-06T12:19:35;20.40;53.00
52979;DHT22;51106;53.186;6.598;2022-07-06T12:21:44;20.10;53.10
52979;DHT22;51106;53.186;6.598;2022-07-06T12:23:49;20.10;52.70
52979;DHT22;51106;53.186;6.598;2022-07-06T12:25:54;20.20;53.70
52979;DHT22;51106;53.186;6.598;2022-07-06T12:27:57;20.30;53.90
52979;DHT22;51106;53.186;6.598;2022-07-06T12:30:09;20.30;52.00
52979;DHT22;51106;53.186;6.598;2022-07-06T12:32:21;20.20;53.50
52979;DHT22;51106;53.186;6.598;2022-07-06T12:34:29;20.10;52.00
52979;DHT22;51106;53.186;6.598;2022-07-06T12:36:43;20.00;51.20
52979;DHT22;51106;53.186;6.598;2022-07-06T12:38:47;19.80;52.30
52979;DHT22;51106;53.186;6.598;2022-07-06T12:40:50;19.80;52.60
52979;DHT22;51106;53.186;6.598;2022-07-06T12:42:52;19.70;53.60
52979;DHT22;51106;53.186;6.598;2022-07-06T12:44:54;19.80;54.30
52979;DHT22;51106;53.186;6.598;2022-07-06T12:47:07;20.00;54.40
52979;DHT22;51106;53.186;6.598;2022-07-06T12:51:14;20.20;54.70
52979;DHT22;51106;53.186;6.598;2022-07-06T12:53:26;20.30;54.50
52979;DHT22;51106;53.186;6.598;2022-07-06T12:55:30;20.20;54.80
52979;DHT22;51106;53.186;6.598;2022-07-06T12:57:46;20.20;55.30
52979;DHT22;51106;53.186;6.598;2022-07-06T12:59:55;20.10;55.40
52979;DHT22;51106;53.186;6.598;2022-07-06T13:01:57;19.90;54.30
52979;DHT22;51106;53.186;6.598;2022-07-06T13:04:00;19.70;53.90
52979;DHT22;51106;53.186;6.598;2022-07-06T13:06:02;19.60;55.00